Time;durP1;ratioP1;P1;durP2;ratioP2;P2;SDS_P1;SDS_P2;PMS_P1;PMS_P2;Temp;Humidity;BMP_temperature;BMP_pressure;BME280_temperature;BME280_humidity;BME280_pressure;Samples;Min_cycle;Max_cycle;Signal;HPM_P1;HPM_P2
2022/06/13 00:00:16;;;;;;;15.25;4.95;;;12.90;99.90;;;;;;4930400;29;20052;-89
2022/06/13 00:02:42;;;;;;;20.83;5.05;;;12.80;99.90;;;;;;4914715;29;20046;-89
2022/06/13 00:05:08;;;;;;;15.95;4.88;;;12.80;99.90;;;;;;4914239;29;20138;-89
2022/06/13 00:07:34;;;;;;;16.90;5.20;;;12.80;99.90;;;;;;4914293;29;20493;-89
2022/06/13 00:10:02;;;;;;;18.30;5.22;;;12.70;99.90;;;;;;4915050;29;20075;-88
2022/06/13 00:12:28;;;;;;;21.90;5.75;;;12.70;99.90;;;;;;4914454;29;20043;-88
2022/06/13 00:14:54;;;;;;;23.55;6.18;;;12.60;99.90;;;;;;4914754;29;20046;-89
2022/06/13 00:17:20;;;;;;;20.05;5.70;;;12.60;99.90;;;;;;4913997;29;20082;-89
2022/06/13 00:19:46;;;;;;;18.83;5.72;;;12.60;99.90;;;;;;4913938;29;20052;-89
2022/06/13 00:22:11;;;;;;;18.35;5.88;;;12.60;99.90;;;;;;4922596;29;20134;-88
2022/06/13 00:24:38;;;;;;;16.63;5.70;;;12.50;99.90;;;;;;4918242;29;20095;-88
2022/06/13 00:27:04;;;;;;;20.40;6.40;;;12.60;99.90;;;;;;4934202;29;20444;-88
2022/06/13 00:29:30;;;;;;;15.88;5.82;;;12.50;99.90;;;;;;4934039;29;20131;-88
2022/06/13 00:31:56;;;;;;;15.68;5.53;;;12.50;99.90;;;;;;4933150;29;20134;-89
2022/06/13 00:34:21;;;;;;;19.65;5.50;;;12.50;99.90;;;;;;4933178;29;20098;-88
2022/06/13 00:36:48;;;;;;;18.50;5.32;;;12.50;99.90;;;;;;4934358;29;20047;-88
2022/06/13 00:39:14;;;;;;;13.65;5.28;;;12.40;99.90;;;;;;4932693;29;20051;-89
2022/06/13 00:41:42;;;;;;;21.73;5.63;;;12.30;99.90;;;;;;4934167;29;20059;-89
2022/06/13 00:44:19;;;;;;;15.27;5.35;;;12.30;99.90;;;;;;4933352;29;20054;-89
2022/06/13 00:46:45;;;;;;;16.17;5.55;;;12.30;99.90;;;;;;4933173;29;20472;-89
2022/06/13 00:49:19;;;;;;;24.20;6.18;;;12.20;99.90;;;;;;4933098;29;20187;-89
2022/06/13 00:51:50;;;;;;;19.95;5.43;;;12.10;99.90;;;;;;4933603;29;20052;-89
2022/06/13 00:54:19;;;;;;;15.77;5.50;;;12.20;99.90;;;;;;4932663;29;20154;-89
2022/06/13 00:56:48;;;;;;;18.48;5.30;;;12.20;99.90;;;;;;4933598;29;20070;-88
2022/06/13 00:59:20;;;;;;;18.23;6.00;;;12.20;99.90;;;;;;4933100;29;20480;-89
2022/06/13 01:01:46;;;;;;;23.58;6.18;;;12.30;99.90;;;;;;4933285;29;20051;-88
2022/06/13 01:04:12;;;;;;;18.95;5.47;;;12.40;99.90;;;;;;4932744;29;20183;-88
2022/06/13 01:06:43;;;;;;;18.83;5.78;;;12.50;99.90;;;;;;4932649;29;20479;-89
2022/06/13 01:09:11;;;;;;;19.60;5.68;;;12.50;99.90;;;;;;4933890;29;20039;-89
2022/06/13 01:11:43;;;;;;;21.95;6.20;;;12.60;99.90;;;;;;4939831;29;20143;-89
2022/06/13 01:14:48;;;;;;;29.13;6.40;;;12.70;99.90;;;;;;4916701;29;20044;-88
2022/06/13 01:17:36;;;;;;;20.27;5.70;;;12.70;99.90;;;;;;4933031;29;20515;-89
2022/06/13 01:20:14;;;;;;;17.38;5.82;;;12.80;99.90;;;;;;4916505;29;20048;-88
2022/06/13 01:23:07;;;;;;;17.23;5.60;;;12.90;99.90;;;;;;4917190;29;20047;-88
2022/06/13 01:26:07;;;;;;;18.08;6.72;;;12.80;99.90;;;;;;4932909;29;20048;-89
2022/06/13 01:28:38;;;;;;;18.30;5.95;;;12.90;99.90;;;;;;4933532;29;20552;-89
2022/06/13 01:31:17;;;;;;;25.35;6.05;;;12.80;99.90;;;;;;4933313;29;20047;-89
2022/06/13 01:34:08;;;;;;;17.73;5.85;;;12.80;99.90;;;;;;4932912;29;20510;-89
2022/06/13 01:36:49;;;;;;;23.27;6.88;;;12.80;99.90;;;;;;4932168;29;20055;-89
2022/06/13 01:39:25;;;;;;;21.35;6.00;;;12.70;99.90;;;;;;4932424;29;20099;-89
2022/06/13 01:42:11;;;;;;;20.10;6.32;;;12.70;99.90;;;;;;4948381;29;20051;-89
2022/06/13 01:44:45;;;;;;;24.33;6.80;;;12.20;99.90;;;;;;4916791;29;20504;-88
2022/06/13 01:47:22;;;;;;;18.33;6.22;;;12.70;99.90;;;;;;4923335;29;20134;-89
2022/06/13 01:49:56;;;;;;;19.35;6.07;;;12.70;99.90;;;;;;4931513;29;20079;-88
2022/06/13 01:52:34;;;;;;;22.48;6.50;;;12.80;99.90;;;;;;4934109;29;20094;-89
2022/06/13 01:55:20;;;;;;;22.42;6.45;;;12.80;99.90;;;;;;4932623;29;20048;-89
2022/06/13 01:57:55;;;;;;;26.20;6.93;;;12.90;99.90;;;;;;4916538;29;20467;-89
2022/06/13 02:00:29;;;;;;;18.55;6.57;;;12.90;99.90;;;;;;4933848;29;20055;-89
2022/06/13 02:03:09;;;;;;;22.05;6.35;;;13.00;99.90;;;;;;4931644;29;20047;-89
2022/06/13 02:05:43;;;;;;;20.45;6.43;;;13.00;99.90;;;;;;4931578;29;20074;-89
2022/06/13 02:08:22;;;;;;;16.42;6.55;;;13.10;99.90;;;;;;4933504;29;20047;-89
2022/06/13 02:11:08;;;;;;;20.55;6.80;;;13.00;99.90;;;;;;4931915;29;20090;-88
2022/06/13 02:13:41;;;;;;;19.00;6.55;;;13.00;99.90;;;;;;4932393;29;20071;-89
2022/06/13 02:16:12;;;;;;;26.92;6.55;;;13.00;99.90;;;;;;4931834;29;20504;-88
2022/06/13 02:18:54;;;;;;;20.33;6.75;;;13.10;99.90;;;;;;4931444;29;20054;-89
2022/06/13 02:21:24;;;;;;;20.17;6.80;;;12.60;99.90;;;;;;4930800;29;20040;-88
2022/06/13 02:23:54;;;;;;;17.83;5.72;;;13.10;99.90;;;;;;4932983;29;20050;-89
2022/06/13 02:26:27;;;;;;;23.40;5.75;;;13.20;99.90;;;;;;4916330;29;20511;-89
2022/06/13 02:28:57;;;;;;;;;;;13.20;99.90;;;;;;4932970;29;20138;-89
2022/06/13 02:31:29;;;;;;;23.88;5.35;;;13.30;99.90;;;;;;4931525;29;20037;-89
2022/06/13 02:34:00;;;;;;;17.70;6.03;;;13.30;99.90;;;;;;4932201;29;20436;-89
2022/06/13 02:36:46;;;;;;;17.23;5.40;;;13.30;99.90;;;;;;4931996;29;20055;-89
2022/06/13 02:39:24;;;;;;;20.27;5.57;;;12.70;99.90;;;;;;4915126;29;20147;-88
2022/06/13 02:42:01;;;;;;;17.83;5.25;;;13.40;99.90;;;;;;4915970;29;20138;-89
2022/06/13 02:44:33;;;;;;;20.70;6.00;;;13.40;99.90;;;;;;4915310;29;20143;-89
2022/06/13 02:47:09;;;;;;;15.82;5.28;;;13.40;99.90;;;;;;4915404;29;20043;-89
2022/06/13 02:49:46;;;;;;;24.65;6.05;;;13.30;99.90;;;;;;4915899;29;20047;-89
2022/06/13 02:52:31;;;;;;;16.73;5.53;;;13.30;99.90;;;;;;4915424;29;20138;-89
2022/06/13 02:55:03;;;;;;;16.48;5.72;;;13.30;99.90;;;;;;4916376;29;20376;-89
2022/06/13 02:57:47;;;;;;;20.65;5.53;;;13.30;99.90;;;;;;4916439;29;20408;-89
2022/06/13 03:00:23;;;;;;;16.67;5.68;;;13.30;99.90;;;;;;4915107;29;20051;-90
2022/06/13 03:02:55;;;;;;;20.75;6.72;;;13.30;99.90;;;;;;4931709;29;20050;-89
2022/06/13 03:05:44;;;;;;;16.27;5.40;;;13.30;99.90;;;;;;4915629;29;20460;-89
2022/06/13 03:08:35;;;;;;;20.70;6.50;;;13.30;99.90;;;;;;4930706;29;20102;-89
2022/06/13 03:11:25;;;;;;;14.85;5.78;;;13.20;99.90;;;;;;4935039;29;20102;-89
2022/06/13 03:14:00;;;;;;;21.90;6.28;;;13.20;99.90;;;;;;4951911;29;20550;-89
2022/06/13 03:16:34;;;;;;;19.95;6.88;;;13.20;99.90;;;;;;4950511;29;20044;-89
2022/06/13 03:19:09;;;;;;;19.42;5.82;;;13.20;99.90;;;;;;4949358;29;20054;-88
2022/06/13 03:21:40;;;;;;;20.63;6.47;;;13.10;99.90;;;;;;4950055;29;20081;-89
2022/06/13 03:24:18;;;;;;;23.00;5.40;;;13.10;99.90;;;;;;4950650;29;20046;-89
2022/06/13 03:26:52;;;;;;;18.88;4.70;;;13.10;99.90;;;;;;4951092;29;20086;-89
2022/06/13 03:29:33;;;;;;;16.95;4.50;;;13.20;99.90;;;;;;4951092;29;20115;-88
2022/06/13 03:32:18;;;;;;;23.23;4.63;;;13.20;99.90;;;;;;4950198;29;20102;-89
2022/06/13 03:34:49;;;;;;;17.77;4.95;;;13.20;99.90;;;;;;4949584;29;20039;-89
2022/06/13 03:37:24;;;;;;;15.25;4.50;;;13.20;99.90;;;;;;4950022;29;20050;-89
2022/06/13 03:39:58;;;;;;;18.25;4.35;;;13.20;99.90;;;;;;4950270;29;20527;-90
2022/06/13 03:42:33;;;;;;;17.40;4.10;;;13.20;99.90;;;;;;4949260;29;20038;-89
2022/06/13 03:45:07;;;;;;;16.90;4.50;;;13.20;99.90;;;;;;4951765;29;20082;-89
2022/06/13 03:47:42;;;;;;;12.77;4.65;;;13.30;99.90;;;;;;4936233;29;20126;-88
2022/06/13 03:50:24;;;;;;;20.25;4.22;;;13.30;99.90;;;;;;4950750;29;20047;-89
2022/06/13 03:52:58;;;;;;;13.47;3.83;;;13.30;99.90;;;;;;4950627;29;20131;-89
2022/06/13 03:55:29;;;;;;;19.63;4.65;;;13.30;99.90;;;;;;4949341;28;20043;-88
2022/06/13 03:58:02;;;;;;;17.23;4.93;;;13.30;99.90;;;;;;4954305;29;20047;-89
2022/06/13 04:00:34;;;;;;;13.43;4.00;;;13.30;99.90;;;;;;4953691;29;20062;-89
2022/06/13 04:03:01;;;;;;;15.43;4.82;;;13.30;99.90;;;;;;4954015;29;20039;-89
2022/06/13 04:05:37;;;;;;;13.40;3.88;;;13.30;99.90;;;;;;4953211;29;20055;-88
2022/06/13 04:08:08;;;;;;;16.55;4.43;;;13.40;99.90;;;;;;4953776;29;20051;-89
2022/06/13 04:10:46;;;;;;;16.52;4.00;;;13.50;99.90;;;;;;4953225;29;20055;-89
2022/06/13 04:13:19;;;;;;;15.75;4.72;;;13.50;99.90;;;;;;4954291;29;20083;-89
2022/06/13 04:15:53;;;;;;;;;;;13.60;99.90;;;;;;4955906;28;20144;-90
2022/06/13 04:18:43;;;;;;;16.67;4.53;;;13.70;99.90;;;;;;4937259;29;19922;-90
2022/06/13 04:21:31;;;;;;;20.42;4.25;;;13.70;99.90;;;;;;4952791;29;20055;-89
2022/06/13 04:24:05;;;;;;;14.95;3.80;;;13.80;99.90;;;;;;4954809;29;20404;-89
2022/06/13 04:26:42;;;;;;;15.57;3.88;;;13.90;99.90;;;;;;4956081;29;20578;-89
2022/06/13 04:29:21;;;;;;;15.45;3.97;;;13.90;99.90;;;;;;4954344;29;20141;-89
2022/06/13 04:31:48;;;;;;;15.98;4.07;;;13.90;99.90;;;;;;4952725;29;20052;-90
2022/06/13 04:34:20;;;;;;;16.13;3.92;;;13.80;99.90;;;;;;4953966;29;20079;-89
2022/06/13 04:36:49;;;;;;;13.38;3.90;;;13.80;99.90;;;;;;4953583;29;20082;-89
2022/06/13 04:39:21;;;;;;;14.57;3.50;;;13.90;99.90;;;;;;4952264;29;20043;-90
2022/06/13 04:41:49;;;;;;;10.77;3.40;;;13.90;99.90;;;;;;4953373;29;20059;-90
2022/06/13 04:44:20;;;;;;;11.25;3.75;;;13.90;99.90;;;;;;4953817;29;20149;-89
2022/06/13 04:46:47;;;;;;;12.80;3.65;;;14.00;99.90;;;;;;4952480;29;20039;-89
2022/06/13 04:49:30;;;;;;;12.13;3.22;;;14.10;99.90;;;;;;4952768;29;20594;-90
2022/06/13 04:51:58;;;;;;;18.02;3.55;;;14.20;99.90;;;;;;4953391;29;20057;-89
2022/06/13 04:54:32;;;;;;;19.98;4.60;;;14.20;99.90;;;;;;4952743;29;20082;-90
2022/06/13 04:56:59;;;;;;;13.65;3.40;;;14.30;99.90;;;;;;4953725;29;20153;-90
2022/06/13 04:59:25;;;;;;;12.60;3.22;;;14.30;99.90;;;;;;4952259;29;20050;-89
2022/06/13 05:01:51;;;;;;;10.35;3.10;;;14.30;99.90;;;;;;4953522;29;20062;-90
2022/06/13 05:04:21;;;;;;;12.20;2.70;;;14.40;99.90;;;;;;4952230;29;20051;-90
2022/06/13 05:06:50;;;;;;;11.98;3.10;;;14.40;99.90;;;;;;4952512;28;20043;-90
2022/06/13 05:09:21;;;;;;;11.00;2.30;;;14.40;99.90;;;;;;4951978;29;20043;-90
2022/06/13 05:11:53;;;;;;;11.27;2.83;;;14.40;99.90;;;;;;4945434;29;20055;-90
2022/06/13 05:14:28;;;;;;;10.65;2.15;;;14.30;99.90;;;;;;4938157;29;20050;-89
2022/06/13 05:17:05;;;;;;;7.47;2.33;;;14.20;99.90;;;;;;4936975;29;20113;-89
2022/06/13 05:19:46;;;;;;;12.27;2.78;;;14.20;99.90;;;;;;4936499;29;20600;-89
2022/06/13 05:22:17;;;;;;;7.90;1.90;;;14.10;99.90;;;;;;4939001;28;20046;-87
2022/06/13 05:25:18;;;;;;;6.47;1.40;;;14.00;99.90;;;;;;4935626;29;20046;-88
2022/06/13 05:27:44;;;;;;;6.40;1.73;;;14.00;99.90;;;;;;4935496;29;20054;-90
2022/06/13 05:30:14;;;;;;;8.57;1.63;;;13.90;99.90;;;;;;4937793;29;20040;-87
2022/06/13 05:32:41;;;;;;;9.85;2.00;;;13.90;99.90;;;;;;4937880;29;20039;-90
2022/06/13 05:35:15;;;;;;;10.20;2.45;;;13.90;99.90;;;;;;4951283;29;20047;-89
2022/06/13 05:37:42;;;;;;;8.63;2.08;;;14.00;99.90;;;;;;4938288;29;20047;-90
2022/06/13 05:40:17;;;;;;;12.23;1.98;;;14.20;99.90;;;;;;4935509;29;20071;-90
2022/06/13 05:42:44;;;;;;;9.23;1.92;;;14.40;99.90;;;;;;4935914;29;20050;-89
2022/06/13 05:45:12;;;;;;;7.80;1.55;;;14.50;99.90;;;;;;4937577;29;20051;-90
2022/06/13 05:47:40;;;;;;;7.75;1.40;;;14.70;99.90;;;;;;4936605;29;20089;-89
2022/06/13 05:50:06;;;;;;;7.43;1.75;;;14.90;99.90;;;;;;4936512;28;20057;-89
2022/06/13 05:52:32;;;;;;;5.38;1.42;;;15.10;99.90;;;;;;4936206;29;20048;-89
2022/06/13 05:54:57;;;;;;;6.80;1.63;;;15.30;99.90;;;;;;4938109;29;20094;-89
2022/06/13 05:57:23;;;;;;;6.38;1.65;;;15.30;99.90;;;;;;4936125;29;20105;-90
2022/06/13 05:59:49;;;;;;;7.43;1.23;;;15.40;99.90;;;;;;4951714;29;20043;-89
2022/06/13 06:02:15;;;;;;;9.18;1.50;;;15.60;99.90;;;;;;4931865;29;20051;-90
2022/06/13 06:04:41;;;;;;;7.03;1.30;;;15.30;99.90;;;;;;4931951;29;20499;-90
2022/06/13 06:07:08;;;;;;;6.30;1.17;;;15.30;99.90;;;;;;4934351;29;20081;-91
2022/06/13 06:09:36;;;;;;;12.73;1.35;;;15.20;99.90;;;;;;4934177;29;20052;-90
2022/06/13 06:12:02;;;;;;;7.70;1.50;;;15.10;99.90;;;;;;4935288;29;20491;-90
2022/06/13 06:14:31;;;;;;;7.35;1.20;;;15.00;99.90;;;;;;4933795;29;20056;-90
2022/06/13 06:16:57;;;;;;;11.80;1.50;;;15.40;99.90;;;;;;4932442;29;20133;-90
2022/06/13 06:19:22;;;;;;;5.35;1.30;;;15.60;99.90;;;;;;4931175;29;20063;-90
2022/06/13 06:21:48;;;;;;;7.53;1.35;;;15.80;99.90;;;;;;4932436;29;20056;-90
2022/06/13 06:24:17;;;;;;;6.68;1.25;;;15.90;99.90;;;;;;4985709;23;20058;-91
2022/06/13 06:26:46;;;;;;;10.02;1.50;;;15.80;99.90;;;;;;4974322;28;20061;-91
2022/06/13 06:29:12;;;;;;;8.52;1.38;;;15.80;99.90;;;;;;4974829;28;20046;-91
2022/06/13 06:34:14;;;;;;;12.88;1.75;;;15.50;99.90;;;;;;4970394;28;20409;-92
2022/06/13 06:37:06;;;;;;;10.48;1.92;;;15.30;99.90;;;;;;4942540;29;20105;-92
2022/06/13 06:40:13;;;;;;;7.82;1.35;;;15.10;99.90;;;;;;4916270;29;20047;-94
2022/06/13 06:42:48;;;;;;;7.00;1.38;;;14.90;99.90;;;;;;4920726;28;20065;-92
2022/06/13 06:45:32;;;;;;;10.50;1.90;;;14.80;99.90;;;;;;4942254;28;20101;-91
2022/06/13 06:48:10;;;;;;;10.65;1.70;;;14.80;99.90;;;;;;4966113;28;20118;-92
2022/06/13 06:50:54;;;;;;;9.95;1.70;;;14.80;99.90;;;;;;4961502;28;20053;-91
2022/06/13 07:02:13;;;;;;;9.68;1.50;;;15.10;99.90;;;;;;4952509;29;20487;-91
2022/06/13 07:04:47;;;;;;;4.97;1.40;;;15.10;99.90;;;;;;4936355;28;20055;-92
2022/06/13 07:07:33;;;;;;;12.35;1.58;;;14.90;99.90;;;;;;4939118;28;20050;-91
2022/06/13 07:10:49;;;;;;;8.40;1.63;;;14.80;99.90;;;;;;4934775;29;20054;-91
2022/06/13 07:13:40;;;;;;;9.20;1.38;;;14.80;99.90;;;;;;4921647;28;20479;-92
2022/06/13 07:16:30;;;;;;;8.77;1.63;;;14.70;99.90;;;;;;4955329;28;20054;-92
2022/06/13 07:19:11;;;;;;;9.73;1.60;;;14.80;99.90;;;;;;4956224;28;20085;-92
2022/06/13 07:22:02;;;;;;;9.43;1.42;;;15.10;99.90;;;;;;4941008;28;20050;-91
2022/06/13 07:28:19;;;;;;;8.15;1.30;;;15.50;99.90;;;;;;4939109;28;20551;-91
2022/06/13 07:30:53;;;;;;;10.40;1.38;;;15.90;99.90;;;;;;4934956;28;20050;-93
2022/06/13 07:33:45;;;;;;;8.73;1.40;;;16.00;99.90;;;;;;4962915;28;20061;-91
2022/06/13 07:36:38;;;;;;;7.68;1.45;;;16.30;99.90;;;;;;4969333;28;20054;-92
2022/06/13 07:39:43;;;;;;;12.52;1.40;;;16.60;99.90;;;;;;4984928;28;20089;-92
2022/06/13 07:46:38;;;;;;;14.02;1.70;;;16.30;99.90;;;;;;4916118;28;20122;-92
2022/06/13 07:49:16;;;;;;;8.98;1.40;;;16.10;99.90;;;;;;4973356;28;20055;-91
2022/06/13 07:52:09;;;;;;;13.00;1.45;;;16.00;99.90;;;;;;4990286;28;20050;-90
2022/06/13 07:55:01;;;;;;;11.07;1.75;;;15.70;99.90;;;;;;4968826;28;20047;-90
2022/06/13 07:57:35;;;;;;;9.18;1.48;;;16.50;99.90;;;;;;4960018;28;20082;-91
2022/06/13 08:00:09;;;;;;;7.85;1.33;;;16.70;99.90;;;;;;4972451;28;20042;-91
2022/06/13 08:02:57;;;;;;;7.68;0.98;;;16.90;99.90;;;;;;4973476;28;20396;-90
2022/06/13 08:05:59;;;;;;;10.75;1.10;;;17.40;99.90;;;;;;4971496;28;20096;-90
2022/06/13 08:08:49;;;;;;;8.60;1.33;;;17.20;99.90;;;;;;4974671;28;20042;-90
2022/06/13 08:11:44;;;;;;;11.05;1.65;;;17.20;99.90;;;;;;4991402;28;20511;-90
2022/06/13 08:14:19;;;;;;;6.72;0.93;;;17.20;99.90;;;;;;4972363;28;20054;-90
2022/06/13 08:17:00;;;;;;;;;;;;;;;;;;;;;
2022/06/13 08:19:41;;;;;;;6.88;0.93;;;17.40;99.90;;;;;;4987226;28;20060;-90
2022/06/13 08:22:09;;;;;;;5.55;1.02;;;17.40;99.90;;;;;;4970622;28;20054;-90
2022/06/13 08:24:38;;;;;;;8.82;1.10;;;17.70;99.90;;;;;;4960754;28;20082;-90
2022/06/13 08:27:07;;;;;;;9.25;1.50;;;17.70;99.90;;;;;;4987429;28;20512;-90
2022/06/13 08:29:54;;;;;;;7.78;1.15;;;17.80;99.90;;;;;;4973153;28;20050;-91
2022/06/13 08:32:35;;;;;;;6.03;0.80;;;17.70;99.90;;;;;;4981871;28;20055;-90
2022/06/13 08:35:12;;;;;;;13.05;1.15;;;17.70;99.90;;;;;;4935787;28;20510;-90
2022/06/13 08:37:48;;;;;;;;;;;;;;;;;;;;;
2022/06/13 08:40:23;;;;;;;9.38;1.08;;;17.80;99.90;;;;;;4950327;29;20055;-89
2022/06/13 08:42:57;;;;;;;8.85;1.20;;;17.80;99.90;;;;;;4918771;29;20134;-89
2022/06/13 08:48:38;;;;;;;6.05;1.02;;;17.90;99.90;;;;;;4945356;29;20051;-90
2022/06/13 08:51:52;;;;;;;7.70;1.17;;;17.60;99.90;;;;;;4920486;29;20047;-90
2022/06/13 08:54:41;;;;;;;9.13;1.10;;;17.50;99.90;;;;;;4951482;29;20122;-90
2022/06/13 08:57:31;;;;;;;9.70;1.35;;;17.20;99.90;;;;;;4921377;29;20058;-89
2022/06/13 09:00:18;;;;;;;5.28;0.75;;;16.70;99.90;;;;;;4931233;29;20059;-90
2022/06/13 09:03:06;;;;;;;8.48;1.10;;;16.60;99.90;;;;;;4937342;29;20094;-89
2022/06/13 09:05:50;;;;;;;7.53;1.00;;;16.40;99.90;;;;;;4919791;29;20043;-89
2022/06/13 09:08:54;;;;;;;;;;;;;;;;;;;;;
2022/06/13 09:11:42;;;;;;;8.27;0.88;;;16.80;99.90;;;;;;4952522;29;20399;-89
2022/06/13 09:14:26;;;;;;;8.80;1.02;;;17.20;99.90;;;;;;4939458;29;20039;-89
2022/06/13 09:17:03;;;;;;;8.40;1.40;;;17.30;99.90;;;;;;4920572;29;20503;-89
2022/06/13 09:19:42;;;;;;;8.27;1.00;;;17.30;99.90;;;;;;4919337;29;20050;-90
2022/06/13 09:22:27;;;;;;;9.27;1.00;;;17.40;99.90;;;;;;4920401;29;20057;-89
2022/06/13 09:25:20;;;;;;;7.43;1.38;;;17.60;99.90;;;;;;4922675;29;20042;-89
2022/06/13 09:28:35;;;;;;;6.03;0.80;;;17.80;99.90;;;;;;4936662;29;20105;-89
2022/06/13 09:31:27;;;;;;;7.13;1.02;;;17.80;99.90;;;;;;4936186;29;20090;-90
2022/06/13 09:34:14;;;;;;;;;;;;;;;;;;;;;
2022/06/13 09:37:06;;;;;;;7.65;1.33;;;17.60;99.90;;;;;;4973082;28;20043;-89
2022/06/13 09:39:58;;;;;;;9.75;1.65;;;17.50;99.90;;;;;;4955708;28;20145;-90
2022/06/13 09:42:48;;;;;;;8.57;1.17;;;17.50;99.90;;;;;;4956829;28;20047;-89
2022/06/13 09:45:53;;;;;;;10.70;1.52;;;17.50;99.90;;;;;;4954384;28;20058;-90
2022/06/13 09:48:49;;;;;;;9.07;1.35;;;17.60;99.90;;;;;;4950719;28;20094;-90
2022/06/13 09:51:38;;;;;;;9.70;1.70;;;17.30;99.90;;;;;;4974319;28;20046;-90
2022/06/13 09:54:25;;;;;;;7.75;1.33;;;17.10;99.90;;;;;;4955100;28;20047;-90
2022/06/13 09:57:08;;;;;;;9.93;1.40;;;17.40;99.90;;;;;;4972276;28;20479;-94
2022/06/13 09:59:37;;;;;;;8.68;1.85;;;17.70;99.90;;;;;;4955897;28;20049;-89
2022/06/13 10:02:15;;;;;;;11.02;1.45;;;18.10;99.90;;;;;;4968436;28;20047;-92
2022/06/13 10:04:48;;;;;;;8.48;1.38;;;18.30;99.90;;;;;;4987864;28;20057;-93
2022/06/13 10:07:31;;;;;;;9.43;1.52;;;18.10;99.90;;;;;;4970741;28;20125;-88
2022/06/13 10:10:06;;;;;;;8.95;1.65;;;17.80;99.90;;;;;;4976845;28;20121;-88
2022/06/13 10:12:39;;;;;;;10.60;1.52;;;17.50;99.90;;;;;;4960575;28;20046;-90
2022/06/13 10:15:18;;;;;;;8.07;1.20;;;17.50;99.90;;;;;;4990163;28;20081;-90
2022/06/13 10:17:56;;;;;;;10.60;1.40;;;17.40;99.90;;;;;;4968448;28;20051;-87
2022/06/13 10:20:24;;;;;;;8.90;1.17;;;17.40;99.90;;;;;;4987982;28;20073;-90
2022/06/13 10:22:55;;;;;;;13.65;1.52;;;17.50;99.90;;;;;;4973398;28;20065;-87
2022/06/13 10:25:35;;;;;;;17.60;1.80;;;17.40;99.90;;;;;;4972799;28;20137;-88
2022/06/13 10:28:06;;;;;;;11.98;1.60;;;17.30;99.90;;;;;;4971369;28;20049;-87
2022/06/13 10:30:44;;;;;;;18.77;1.70;;;17.40;99.90;;;;;;4984878;28;20101;-89
2022/06/13 10:33:27;;;;;;;11.35;1.50;;;17.40;99.90;;;;;;4962690;28;20101;-87
2022/06/13 10:36:08;;;;;;;10.73;1.20;;;17.20;99.90;;;;;;4963613;28;20065;-88
2022/06/13 10:38:57;;;;;;;10.40;1.35;;;17.30;99.90;;;;;;4966621;28;20070;-88
2022/06/13 10:41:25;;;;;;;11.13;1.60;;;17.60;99.90;;;;;;4969141;28;20050;-89
2022/06/13 10:43:52;;;;;;;9.50;1.33;;;18.00;99.90;;;;;;4991283;28;20042;-90
2022/06/13 10:46:18;;;;;;;10.48;1.35;;;18.30;99.90;;;;;;4972658;28;20153;-89
2022/06/13 10:49:02;;;;;;;9.98;1.70;;;18.50;99.90;;;;;;4973785;28;20082;-89
2022/06/13 10:51:27;;;;;;;8.32;1.70;;;18.90;99.90;;;;;;4970146;28;20077;-89
2022/06/13 10:54:12;;;;;;;10.02;1.60;;;19.00;99.90;;;;;;4973056;28;20082;-89
2022/06/13 10:56:46;;;;;;;10.48;1.55;;;19.00;99.90;;;;;;4957598;28;20055;-90
2022/06/13 10:59:24;;;;;;;10.95;1.67;;;19.30;99.90;;;;;;4967405;28;20545;-88
2022/06/13 11:01:58;;;;;;;14.07;1.88;;;19.10;99.90;;;;;;4970961;28;20078;-89
2022/06/13 11:04:24;;;;;;;13.90;2.05;;;18.90;99.90;;;;;;4984518;28;20566;-88
2022/06/13 11:06:54;;;;;;;10.65;2.30;;;18.70;99.90;;;;;;4971175;28;20121;-88
2022/06/13 11:09:26;;;;;;;12.13;2.20;;;18.40;99.90;;;;;;4985616;28;20053;-88
2022/06/13 11:11:57;;;;;;;13.80;2.35;;;18.20;99.90;;;;;;4969874;28;20133;-88
2022/06/13 11:14:35;;;;;;;15.60;2.40;;;18.20;99.90;;;;;;4969129;28;20053;-88
2022/06/13 11:22:38;;;;;;;9.25;1.20;;;17.80;99.90;;;;;;4985960;28;20482;-89
2022/06/13 11:25:14;;;;;;;12.85;1.33;;;17.80;99.90;;;;;;4969442;28;20042;-88
2022/06/13 11:27:41;;;;;;;11.65;1.50;;;18.20;99.90;;;;;;4968899;28;20043;-89
2022/06/13 11:30:26;;;;;;;10.38;1.50;;;18.50;99.90;;;;;;4969318;28;20046;-89
2022/06/13 11:33:13;;;;;;;7.68;1.35;;;18.80;99.90;;;;;;4986066;28;20462;-89
2022/06/13 11:35:39;;;;;;;11.57;1.70;;;19.10;99.90;;;;;;4971168;28;20526;-88
2022/06/13 11:38:16;;;;;;;11.68;1.80;;;19.40;99.90;;;;;;4968088;28;20039;-89
2022/06/13 11:40:45;;;;;;;8.18;1.52;;;19.40;99.90;;;;;;4971006;28;20084;-88
2022/06/13 11:43:29;;;;;;;9.88;1.70;;;19.20;99.90;;;;;;4988318;28;20095;-89
2022/06/13 11:45:58;;;;;;;8.40;1.50;;;19.00;99.90;;;;;;4987980;28;20334;-89
2022/06/13 11:48:26;;;;;;;7.63;1.33;;;18.80;99.90;;;;;;4971223;28;20357;-89
2022/06/13 11:50:55;;;;;;;11.68;1.95;;;18.50;99.90;;;;;;4987470;28;20069;-89
2022/06/13 11:53:36;;;;;;;12.55;1.88;;;18.30;99.90;;;;;;4971943;28;20561;-90
2022/06/13 11:56:07;;;;;;;11.18;1.65;;;18.30;99.90;;;;;;4971410;28;20767;-89
2022/06/13 11:58:46;;;;;;;9.60;1.48;;;18.20;99.90;;;;;;4966334;28;20047;-89
2022/06/13 12:01:25;;;;;;;12.82;1.83;;;18.40;99.90;;;;;;4970478;28;20046;-91
2022/06/13 12:04:03;;;;;;;12.50;1.67;;;18.70;99.90;;;;;;4963197;28;20090;-91
2022/06/13 12:06:44;;;;;;;8.85;1.10;;;18.80;99.90;;;;;;4970148;28;20461;-91
2022/06/13 12:09:31;;;;;;;12.07;1.27;;;18.60;99.90;;;;;;4949492;28;20090;-92
2022/06/13 12:12:12;;;;;;;11.07;1.67;;;18.50;99.90;;;;;;4970464;28;20049;-92
2022/06/13 12:15:14;;;;;;;7.55;1.40;;;18.50;99.90;;;;;;4956292;28;20189;-92
2022/06/13 12:18:08;;;;;;;14.25;1.70;;;18.50;99.90;;;;;;4973310;28;20038;-91
2022/06/13 12:20:46;;;;;;;6.45;1.17;;;18.30;99.90;;;;;;4974440;28;20065;-92
2022/06/13 12:23:58;;;;;;;;;;;;;;;;;;;;;
2022/06/13 12:27:11;;;;;;;13.07;1.85;;;18.00;99.90;;;;;;4973431;28;20043;-92
2022/06/13 12:30:25;;;;;;;7.53;1.10;;;17.90;99.90;;;;;;4951661;28;20066;-91
2022/06/13 12:33:05;;;;;;;6.57;1.10;;;17.90;99.90;;;;;;4973292;28;20062;-91
2022/06/13 12:38:41;;;;;;;3.67;0.68;;;18.10;99.90;;;;;;4975012;28;20054;-91
2022/06/13 12:41:57;;;;;;;11.68;1.42;;;18.10;99.90;;;;;;4973011;28;20557;-90
2022/06/13 12:44:34;;;;;;;10.35;0.90;;;18.10;99.90;;;;;;4948704;28;20055;-91
2022/06/13 12:47:44;;;;;;;;;;;;;;;;;;;;;
2022/06/13 12:50:40;;;;;;;10.88;1.23;;;17.80;99.90;;;;;;4977246;28;20109;-91
2022/06/13 12:53:34;;;;;;;7.75;1.30;;;17.70;99.90;;;;;;4972605;28;20525;-91
2022/06/13 12:56:13;;;;;;;4.18;0.90;;;17.80;99.90;;;;;;4956985;28;20043;-91
2022/06/13 13:02:42;;;;;;;8.80;0.80;;;17.80;99.90;;;;;;4964159;28;20051;-91
2022/06/13 13:05:19;;;;;;;8.02;0.90;;;18.50;99.90;;;;;;4957678;28;20042;-92
2022/06/13 13:08:22;;;;;;;7.35;0.90;;;18.50;99.90;;;;;;4957681;28;20394;-92
2022/06/13 13:11:21;;;;;;;;;;;;;;;;;;;;;
2022/06/13 13:14:12;;;;;;;10.10;1.00;;;18.90;99.90;;;;;;4972709;28;20055;-90
2022/06/13 13:17:01;;;;;;;8.15;0.70;;;18.90;99.90;;;;;;4971825;28;20137;-92
2022/06/13 13:19:44;;;;;;;6.47;0.85;;;18.90;99.90;;;;;;4970914;28;20201;-91
2022/06/13 13:22:46;;;;;;;7.63;0.97;;;19.00;99.90;;;;;;4956927;28;20078;-91
2022/06/13 13:25:37;;;;;;;6.13;1.05;;;18.70;99.90;;;;;;4972923;28;20054;-91
2022/06/13 13:28:32;;;;;;;6.75;1.10;;;18.60;99.90;;;;;;4971794;28;20038;-92
2022/06/13 13:31:29;;;;;;;7.05;0.88;;;18.50;99.90;;;;;;4956863;28;20047;-91
2022/06/13 13:34:43;;;;;;;6.43;0.93;;;18.50;99.90;;;;;;4956695;28;20523;-91
2022/06/13 13:37:33;;;;;;;5.85;0.90;;;18.50;99.90;;;;;;4957546;28;20109;-91
2022/06/13 13:40:49;;;;;;;10.38;1.40;;;18.30;99.90;;;;;;4971495;28;20046;-91
2022/06/13 13:43:38;;;;;;;11.55;1.58;;;18.50;99.90;;;;;;4971854;28;20483;-92
2022/06/13 13:47:15;;;;;;;6.32;1.25;;;18.40;99.90;;;;;;4956826;28;20096;-91
2022/06/13 13:49:48;;;;;;;5.47;1.00;;;18.50;99.90;;;;;;4969665;28;20058;-91
2022/06/13 13:52:55;;;;;;;9.88;1.00;;;18.60;99.90;;;;;;4983456;28;20057;-91
2022/06/13 13:55:45;;;;;;;6.00;1.33;;;18.40;99.90;;;;;;4970699;28;20051;-91
2022/06/13 13:58:28;;;;;;;8.93;1.10;;;18.40;99.90;;;;;;4971853;28;20113;-91
2022/06/13 14:01:47;;;;;;;7.60;1.10;;;18.30;99.90;;;;;;4971222;28;20105;-91
2022/06/13 14:08:21;;;;;;;8.90;1.00;;;18.40;99.90;;;;;;4974174;28;20101;-90
2022/06/13 14:11:04;;;;;;;8.05;1.05;;;18.20;99.90;;;;;;4972524;28;20465;-91
2022/06/13 14:13:32;;;;;;;7.13;1.38;;;18.20;99.90;;;;;;4971389;28;20049;-91
2022/06/13 14:16:23;;;;;;;4.78;0.95;;;18.00;99.90;;;;;;4974443;28;20112;-92
2022/06/13 14:19:35;;;;;;;3.47;0.63;;;18.00;99.90;;;;;;4976758;28;20050;-91
2022/06/13 14:22:17;;;;;;;5.05;1.00;;;18.20;99.90;;;;;;4989514;28;20093;-91
2022/06/13 14:28:24;;;;;;;7.95;1.20;;;18.20;99.90;;;;;;5005052;23;20050;-89
2022/06/13 14:31:16;;;;;;;13.93;1.50;;;18.10;99.90;;;;;;4974476;28;20069;-89
2022/06/13 14:37:06;;;;;;;8.10;1.25;;;17.80;99.90;;;;;;4990946;28;20050;-90